createdAt,value
2019-01-11T00:00:33.649Z,13.27
2019-01-11T00:03:03.220Z,11.80
2019-01-11T00:05:32.071Z,11.70
2019-01-11T00:08:00.900Z,12.90
2019-01-11T00:10:29.736Z,11.53
2019-01-11T00:12:58.595Z,11.60
2019-01-11T00:15:28.175Z,10.53
2019-01-11T00:17:57.017Z,11.43
2019-01-11T00:20:25.872Z,10.77
2019-01-11T00:22:54.728Z,10.43
2019-01-11T00:25:23.567Z,10.73
2019-01-11T00:27:52.407Z,10.47
2019-01-11T00:30:21.255Z,10.03
2019-01-11T00:32:50.090Z,9.77
2019-01-11T00:35:18.927Z,9.87
2019-01-11T00:37:47.778Z,9.93
2019-01-11T00:40:16.602Z,10.83
2019-01-11T00:42:45.433Z,9.47
2019-01-11T00:45:14.259Z,9.23
2019-01-11T00:47:43.084Z,9.50
2019-01-11T00:50:11.926Z,8.97
2019-01-11T00:52:40.751Z,9.13
2019-01-11T00:55:09.606Z,9.13
2019-01-11T00:57:39.205Z,8.93
2019-01-11T01:00:10.783Z,9.13
2019-01-11T01:02:39.633Z,9.90
2019-01-11T01:05:08.469Z,10.30
2019-01-11T01:07:38.057Z,9.93
2019-01-11T01:10:07.638Z,9.77
2019-01-11T01:12:36.475Z,9.17
2019-01-11T01:15:05.319Z,9.43
2019-01-11T01:17:34.150Z,10.03
2019-01-11T01:20:02.986Z,9.07
2019-01-11T01:22:31.808Z,9.03
2019-01-11T01:25:00.668Z,9.00
2019-01-11T01:27:29.500Z,10.27
2019-01-11T01:29:59.077Z,9.83
2019-01-11T01:32:27.908Z,10.57
2019-01-11T01:34:56.753Z,10.03
2019-01-11T01:37:25.594Z,10.33
2019-01-11T01:39:54.437Z,9.77
2019-01-11T01:42:23.267Z,10.27
2019-01-11T01:44:52.104Z,9.70
2019-01-11T01:47:20.945Z,9.30
2019-01-11T01:49:49.794Z,8.43
2019-01-11T01:52:18.621Z,8.50
2019-01-11T01:54:47.470Z,9.20
2019-01-11T01:57:17.040Z,8.50
2019-01-11T01:59:45.871Z,7.60
2019-01-11T02:02:14.707Z,7.93
2019-01-11T02:04:43.544Z,8.60
2019-01-11T02:07:12.383Z,8.20
2019-01-11T02:09:41.228Z,8.07
2019-01-11T02:12:10.075Z,8.07
2019-01-11T02:14:38.924Z,7.03
2019-01-11T02:17:07.760Z,8.30
2019-01-11T02:19:36.608Z,7.50
2019-01-11T02:22:05.434Z,7.97
2019-01-11T02:24:34.274Z,7.80
2019-01-11T02:27:03.110Z,7.80
2019-01-11T02:29:31.957Z,7.60
2019-01-11T02:32:01.546Z,7.03
2019-01-11T02:34:30.390Z,7.10
2019-01-11T02:36:59.228Z,6.80
2019-01-11T02:39:28.063Z,6.83
2019-01-11T02:41:56.891Z,7.37
2019-01-11T02:44:25.739Z,7.30
2019-01-11T02:46:54.563Z,7.30
2019-01-11T02:49:23.394Z,7.50
2019-01-11T02:51:52.245Z,7.13
2019-01-11T02:54:21.073Z,6.77
2019-01-11T02:56:49.961Z,6.57
2019-01-11T02:59:18.778Z,5.07
2019-01-11T03:01:47.622Z,6.80
2019-01-11T03:04:16.462Z,7.17
2019-01-11T03:06:45.293Z,7.47
2019-01-11T03:09:14.134Z,6.77
2019-01-11T03:11:42.976Z,7.07
2019-01-11T03:14:12.560Z,6.57
2019-01-11T03:16:41.396Z,6.93
2019-01-11T03:19:10.245Z,7.63
2019-01-11T03:21:39.087Z,7.20
2019-01-11T03:24:07.921Z,8.30
2019-01-11T03:26:36.763Z,7.37
2019-01-11T03:29:05.606Z,7.77
2019-01-11T03:31:34.458Z,7.87
2019-01-11T03:34:03.294Z,7.60
2019-01-11T03:36:32.866Z,7.97
2019-01-11T03:39:01.707Z,8.80
2019-01-11T03:41:31.282Z,8.30
2019-01-11T03:44:00.132Z,8.10
2019-01-11T03:46:28.974Z,8.60
2019-01-11T03:48:57.814Z,8.03
2019-01-11T03:51:26.640Z,7.87
2019-01-11T03:53:55.484Z,8.33
2019-01-11T03:56:24.320Z,8.50
2019-01-11T03:58:53.163Z,8.53
2019-01-11T04:01:22.008Z,8.57
2019-01-11T04:03:50.854Z,8.67
2019-01-11T04:06:19.688Z,8.53
2019-01-11T04:08:48.548Z,9.00
2019-01-11T04:11:17.395Z,9.50
2019-01-11T04:13:46.258Z,8.47
2019-01-11T04:16:15.084Z,8.43
2019-01-11T04:18:43.918Z,8.80
2019-01-11T04:21:12.762Z,9.63
2019-01-11T04:23:54.180Z,9.50
2019-01-11T04:26:23.014Z,10.00
2019-01-11T04:28:51.854Z,9.43
2019-01-11T04:31:20.696Z,10.70
2019-01-11T04:33:49.535Z,10.10
2019-01-11T04:36:19.115Z,10.13
2019-01-11T04:38:47.958Z,10.63
2019-01-11T04:41:16.819Z,9.67
2019-01-11T04:43:45.712Z,11.60
2019-01-11T04:46:14.511Z,10.83
2019-01-11T04:48:43.363Z,10.90
2019-01-11T04:51:12.206Z,12.43
2019-01-11T04:53:41.804Z,12.60
2019-01-11T04:56:10.648Z,11.53
2019-01-11T04:58:39.508Z,13.37
2019-01-11T05:01:08.336Z,15.13
2019-01-11T05:03:37.186Z,16.37
2019-01-11T05:06:06.046Z,17.53
2019-01-11T05:08:35.636Z,16.87
2019-01-11T05:11:04.500Z,17.23
2019-01-11T05:13:34.119Z,15.23
2019-01-11T05:16:02.941Z,14.50
2019-01-11T05:18:32.534Z,13.60
2019-01-11T05:21:01.369Z,12.90
2019-01-11T05:23:30.229Z,13.30
2019-01-11T05:25:59.816Z,13.07
2019-01-11T05:28:28.694Z,13.03
2019-01-11T05:30:57.516Z,13.10
2019-01-11T05:33:26.370Z,13.40
2019-01-11T05:35:55.226Z,14.50
2019-01-11T05:38:24.100Z,13.47
2019-01-11T05:40:52.944Z,13.60
2019-01-11T05:43:21.766Z,13.53
2019-01-11T05:45:51.358Z,14.77
2019-01-11T05:48:20.218Z,13.43
2019-01-11T05:50:49.162Z,16.33
2019-01-11T05:53:18.755Z,16.20
2019-01-11T05:55:47.607Z,14.77
2019-01-11T05:58:21.440Z,14.60
2019-01-11T06:00:50.284Z,14.27
2019-01-11T06:03:19.142Z,16.20
2019-01-11T06:05:48.719Z,15.27
2019-01-11T06:08:18.286Z,16.13
2019-01-11T06:10:47.115Z,15.70
2019-01-11T06:13:15.972Z,15.87
2019-01-11T06:15:44.804Z,17.27
2019-01-11T06:18:14.374Z,15.83
2019-01-11T06:20:43.215Z,15.93
2019-01-11T06:23:12.791Z,15.30
2019-01-11T06:25:42.229Z,16.60
2019-01-11T06:28:11.078Z,15.97
2019-01-11T06:30:39.920Z,16.40
2019-01-11T06:33:08.754Z,16.63
2019-01-11T06:35:37.652Z,16.57
2019-01-11T06:38:06.494Z,15.60
2019-01-11T06:40:35.322Z,16.67
2019-01-11T06:43:04.156Z,15.80
2019-01-11T06:45:33.014Z,17.07
2019-01-11T06:48:01.857Z,16.17
2019-01-11T06:50:36.378Z,15.43
2019-01-11T06:53:00.267Z,16.13
2019-01-11T06:55:29.104Z,16.80
2019-01-11T06:57:58.686Z,16.10
2019-01-11T07:00:27.532Z,14.80
2019-01-11T07:02:56.373Z,15.67
2019-01-11T07:05:25.981Z,14.97
2019-01-11T07:07:55.558Z,16.50
2019-01-11T07:10:24.382Z,48.87
2019-01-11T07:12:53.952Z,19.53
2019-01-11T07:15:22.796Z,20.00
2019-01-11T07:17:51.671Z,21.05
2019-01-11T07:20:20.516Z,17.50
2019-01-11T07:22:49.362Z,17.60
2019-01-11T07:25:18.212Z,17.47
2019-01-11T07:27:47.052Z,16.77
2019-01-11T07:30:15.888Z,15.83
2019-01-11T07:32:44.739Z,15.77
2019-01-11T07:35:13.569Z,55.50
2019-01-11T07:37:42.422Z,194.13
2019-01-11T07:40:11.263Z,131.93
2019-01-11T07:42:40.105Z,76.13
2019-01-11T07:45:08.961Z,52.60
2019-01-11T07:47:37.798Z,35.50
2019-01-11T07:50:06.647Z,39.27
2019-01-11T07:52:35.481Z,31.83
2019-01-11T07:55:04.312Z,26.27
2019-01-11T07:57:33.156Z,23.70
2019-01-11T08:00:01.987Z,31.73
2019-01-11T08:02:31.665Z,34.93
2019-01-11T08:05:00.490Z,28.73
2019-01-11T08:07:29.325Z,28.30
2019-01-11T08:09:58.160Z,21.67
2019-01-11T08:12:27.008Z,28.87
2019-01-11T08:14:55.843Z,31.80
2019-01-11T08:17:24.700Z,29.50
2019-01-11T08:19:54.127Z,27.00
2019-01-11T08:22:23.711Z,27.65
2019-01-11T08:24:52.559Z,30.55
2019-01-11T08:27:21.395Z,28.40
2019-01-11T08:29:50.215Z,27.13
2019-01-11T08:32:19.060Z,24.60
2019-01-11T08:34:47.910Z,23.33
2019-01-11T08:37:16.750Z,22.50
2019-01-11T08:39:45.607Z,24.87
2019-01-11T08:42:14.482Z,26.60
2019-01-11T08:44:44.049Z,26.07
2019-01-11T08:47:13.632Z,24.27
2019-01-11T08:49:42.474Z,35.53
2019-01-11T08:52:11.310Z,26.97
2019-01-11T08:54:40.153Z,26.27
2019-01-11T08:57:08.990Z,23.50
2019-01-11T08:59:38.576Z,27.70
2019-01-11T09:02:07.415Z,23.93
2019-01-11T09:04:36.994Z,24.97
2019-01-11T09:07:05.822Z,23.40
2019-01-11T09:09:34.669Z,24.27
2019-01-11T09:12:03.519Z,23.80
2019-01-11T09:14:33.256Z,24.63
2019-01-11T09:17:02.103Z,24.90
2019-01-11T09:19:30.945Z,22.63
2019-01-11T09:21:59.782Z,22.27
2019-01-11T09:24:28.638Z,23.70
2019-01-11T09:26:57.494Z,22.83
2019-01-11T09:29:26.325Z,21.53
2019-01-11T09:31:55.170Z,22.73
2019-01-11T09:34:24.008Z,22.13
2019-01-11T09:36:53.595Z,21.80
2019-01-11T09:39:22.432Z,22.10
2019-01-11T09:41:51.275Z,20.67
2019-01-11T09:44:20.113Z,20.40
2019-01-11T09:46:48.958Z,22.80
2019-01-11T09:49:18.532Z,22.60
2019-01-11T09:51:47.367Z,22.73
2019-01-11T09:54:16.944Z,21.50
2019-01-11T09:56:45.782Z,20.20
2019-01-11T09:59:14.638Z,23.27
2019-01-11T10:01:44.210Z,21.00
2019-01-11T10:04:13.127Z,21.57
2019-01-11T10:06:41.961Z,21.67
2019-01-11T10:09:10.800Z,24.00
2019-01-11T10:11:39.637Z,22.37
2019-01-11T10:14:08.478Z,24.03
2019-01-11T10:16:37.324Z,24.07
2019-01-11T10:19:06.164Z,27.27
2019-01-11T10:21:35.007Z,26.00
2019-01-11T10:24:03.862Z,26.87
2019-01-11T10:26:32.698Z,24.93
2019-01-11T10:29:01.532Z,25.43
2019-01-11T10:31:31.132Z,24.80
2019-01-11T10:34:00.764Z,24.53
2019-01-11T10:36:29.608Z,28.93
2019-01-11T10:38:59.039Z,30.85
2019-01-11T10:41:28.618Z,27.75
2019-01-11T10:43:57.474Z,23.93
2019-01-11T10:46:28.136Z,24.12
2019-01-11T10:48:57.712Z,21.40
2019-01-11T10:51:28.224Z,22.33
2019-01-11T10:53:55.388Z,23.27
2019-01-11T10:56:24.225Z,22.17
2019-01-11T10:58:53.816Z,22.83
2019-01-11T11:01:22.657Z,24.63
2019-01-11T11:03:51.491Z,24.80
2019-01-11T11:06:20.323Z,24.37
2019-01-11T11:08:49.174Z,23.77
2019-01-11T11:11:18.058Z,23.70
2019-01-11T11:13:46.896Z,26.40
2019-01-11T11:16:15.772Z,26.57
2019-01-11T11:18:44.566Z,25.77
2019-01-11T11:21:13.408Z,25.50
2019-01-11T11:23:42.285Z,26.33
2019-01-11T11:26:11.083Z,25.33
2019-01-11T11:28:39.918Z,25.60
2019-01-11T11:31:09.509Z,27.43
2019-01-11T11:33:38.363Z,25.83
2019-01-11T11:36:07.205Z,26.10
2019-01-11T11:38:36.045Z,28.33
2019-01-11T11:41:04.988Z,27.10
2019-01-11T11:43:33.805Z,27.90
2019-01-11T11:46:02.637Z,27.77
2019-01-11T11:48:32.222Z,26.23
2019-01-11T11:51:01.049Z,30.00
2019-01-11T11:53:29.959Z,27.10
2019-01-11T11:55:59.518Z,28.40
2019-01-11T11:58:28.355Z,30.73
2019-01-11T12:00:57.237Z,29.47
2019-01-11T12:03:26.079Z,28.63
2019-01-11T12:05:54.910Z,27.70
2019-01-11T12:08:24.498Z,30.00
2019-01-11T12:10:54.081Z,28.33
2019-01-11T12:13:22.909Z,31.07
2019-01-11T12:15:51.757Z,31.00
2019-01-11T12:18:20.582Z,29.13
2019-01-11T12:20:50.163Z,28.80
2019-01-11T12:23:19.014Z,27.23
2019-01-11T12:25:47.852Z,28.53
2019-01-11T12:28:16.689Z,29.93
2019-01-11T12:30:45.530Z,31.80
2019-01-11T12:33:14.374Z,28.90
2019-01-11T12:35:43.216Z,26.90
2019-01-11T12:38:13.835Z,28.30
2019-01-11T12:40:40.939Z,28.92
2019-01-11T12:43:09.795Z,28.20
2019-01-11T12:45:38.629Z,26.47
2019-01-11T12:48:07.453Z,27.83
2019-01-11T12:50:37.065Z,29.50
2019-01-11T12:53:05.925Z,28.37
2019-01-11T12:55:34.773Z,30.67
2019-01-11T12:58:03.614Z,31.15
2019-01-11T13:00:32.469Z,28.23
2019-01-11T13:03:01.301Z,26.27
2019-01-11T13:05:30.168Z,26.00
2019-01-11T13:07:59.003Z,27.95
2019-01-11T13:10:27.840Z,26.90
2019-01-11T13:12:56.674Z,25.83
2019-01-11T13:15:26.257Z,25.40
2019-01-11T13:17:55.103Z,24.80
2019-01-11T13:20:23.940Z,27.98
2019-01-11T13:22:52.782Z,25.37
2019-01-11T13:25:21.601Z,25.43
2019-01-11T13:27:50.441Z,25.90
2019-01-11T13:30:19.280Z,26.63
2019-01-11T13:32:48.137Z,27.13
2019-01-11T13:35:16.974Z,28.38
2019-01-11T13:37:45.820Z,25.43
2019-01-11T13:40:15.549Z,26.23
2019-01-11T13:42:44.390Z,27.43
2019-01-11T13:45:13.239Z,26.80
2019-01-11T13:47:42.083Z,26.03
2019-01-11T13:50:15.810Z,26.47
2019-01-11T13:52:44.632Z,27.53
2019-01-11T13:55:14.228Z,26.83
2019-01-11T13:57:43.063Z,28.40
2019-01-11T14:00:11.918Z,26.73
2019-01-11T14:02:40.744Z,25.10
2019-01-11T14:05:09.589Z,38.63
2019-01-11T14:07:38.442Z,28.77
2019-01-11T14:10:07.296Z,27.00
2019-01-11T14:12:36.156Z,26.20
2019-01-11T14:15:05.742Z,26.97
2019-01-11T14:17:34.585Z,26.17
2019-01-11T14:20:03.418Z,26.50
2019-01-11T14:22:32.288Z,24.97
2019-01-11T14:25:01.108Z,27.10
2019-01-11T14:27:29.949Z,25.53
2019-01-11T14:29:59.530Z,28.23
2019-01-11T14:32:29.113Z,25.03
2019-01-11T14:34:58.005Z,29.47
2019-01-11T14:37:32.268Z,27.00
2019-01-11T14:39:55.746Z,26.93
2019-01-11T14:42:24.622Z,26.60
2019-01-11T14:44:53.432Z,28.00
2019-01-11T14:47:22.265Z,28.77
2019-01-11T14:49:51.113Z,27.33
2019-01-11T14:52:20.586Z,26.50
2019-01-11T14:54:48.986Z,28.90
2019-01-11T14:57:17.860Z,28.10
2019-01-11T14:59:46.707Z,31.95
2019-01-11T15:02:15.554Z,28.27
2019-01-11T15:04:44.397Z,31.35
2019-01-11T15:07:13.252Z,28.13
2019-01-11T15:09:42.090Z,32.33
2019-01-11T15:12:11.669Z,30.80
2019-01-11T15:14:41.257Z,28.63
2019-01-11T15:17:10.137Z,31.23
2019-01-11T15:19:38.965Z,28.13
2019-01-11T15:22:07.764Z,29.27
2019-01-11T15:24:37.345Z,28.63
2019-01-11T15:27:06.188Z,28.93
2019-01-11T15:29:35.025Z,30.63
2019-01-11T15:32:03.871Z,30.60
2019-01-11T15:34:32.737Z,30.07
2019-01-11T15:37:01.579Z,34.73
2019-01-11T15:39:30.420Z,30.17
2019-01-11T15:41:59.262Z,29.77
2019-01-11T15:44:28.095Z,31.57
2019-01-11T15:46:56.925Z,32.73
2019-01-11T15:49:25.769Z,30.70
2019-01-11T15:51:54.629Z,32.80
2019-01-11T15:54:23.461Z,30.97
2019-01-11T15:56:52.292Z,32.30
2019-01-11T15:59:21.130Z,33.10
2019-01-11T16:01:49.974Z,32.43
2019-01-11T16:04:19.726Z,34.00
2019-01-11T16:06:48.576Z,30.80
2019-01-11T16:09:18.368Z,31.87
2019-01-11T16:11:56.657Z,36.38
2019-01-11T16:17:07.187Z,36.00
2019-01-11T16:19:36.029Z,31.47
2019-01-11T16:22:04.873Z,31.20
2019-01-11T16:24:33.737Z,31.43
2019-01-11T16:27:02.581Z,33.10
2019-01-11T16:29:31.423Z,29.63
2019-01-11T16:32:00.277Z,28.73
2019-01-11T16:34:29.112Z,30.17
2019-01-11T16:36:57.969Z,28.67
2019-01-11T16:39:26.817Z,29.23
2019-01-11T16:41:55.685Z,27.13
2019-01-11T16:44:24.536Z,28.07
2019-01-11T16:46:53.377Z,27.33
2019-01-11T16:49:22.219Z,26.50
2019-01-11T16:51:51.093Z,27.17
2019-01-11T16:54:20.040Z,26.93
2019-01-11T16:56:49.633Z,25.57
2019-01-11T16:59:19.243Z,26.90
2019-01-11T17:01:48.101Z,24.90
2019-01-11T17:04:17.188Z,28.77
2019-01-11T17:06:46.761Z,26.80
2019-01-11T17:09:16.337Z,26.10
2019-01-11T17:11:45.163Z,25.87
2019-01-11T17:14:14.034Z,24.90
2019-01-11T17:16:42.837Z,28.77
2019-01-11T17:19:11.692Z,32.57
2019-01-11T17:21:40.533Z,28.47
2019-01-11T17:24:09.372Z,28.40
2019-01-11T17:26:38.217Z,26.20
2019-01-11T17:29:07.041Z,28.07
2019-01-11T17:31:35.903Z,28.00
2019-01-11T17:34:04.745Z,28.30
2019-01-11T17:36:35.265Z,27.17
2019-01-11T17:39:03.184Z,26.00
2019-01-11T17:41:32.026Z,28.43
2019-01-11T17:44:00.865Z,26.17
2019-01-11T17:46:29.703Z,28.03
2019-01-11T17:48:59.300Z,27.60
2019-01-11T17:51:28.134Z,29.47
2019-01-11T17:53:56.987Z,29.43
2019-01-11T17:56:25.839Z,28.43
2019-01-11T17:58:54.688Z,31.50
2019-01-11T18:01:23.554Z,31.07
2019-01-11T18:03:52.412Z,28.37
2019-01-11T18:06:21.246Z,29.98
2019-01-11T18:08:50.109Z,28.03
2019-01-11T18:11:18.936Z,27.53
2019-01-11T18:13:47.783Z,27.67
2019-01-11T18:16:16.608Z,27.50
2019-01-11T18:18:45.455Z,28.07
2019-01-11T18:21:14.305Z,27.53
2019-01-11T18:23:43.158Z,31.10
2019-01-11T18:26:12.728Z,28.17
2019-01-11T18:28:41.575Z,29.07
2019-01-11T18:31:10.427Z,28.30
2019-01-11T18:33:39.267Z,22.67
2019-01-11T18:36:08.121Z,31.33
2019-01-11T18:38:37.739Z,30.90
2019-01-11T18:41:06.544Z,30.33
2019-01-11T18:43:35.403Z,32.42
2019-01-11T18:46:05.029Z,30.60
2019-01-11T18:48:33.885Z,29.83
2019-01-11T18:51:02.749Z,30.53
2019-01-11T18:53:31.579Z,28.50
2019-01-11T18:56:05.430Z,29.27
2019-01-11T18:58:29.995Z,31.40
2019-01-11T19:00:58.830Z,31.17
2019-01-11T19:03:27.726Z,30.93
2019-01-11T19:05:56.616Z,29.83
2019-01-11T19:08:25.464Z,30.27
2019-01-11T19:10:54.277Z,29.17
2019-01-11T19:13:23.269Z,29.97
2019-01-11T19:15:52.012Z,29.70
2019-01-11T19:18:20.847Z,29.27
2019-01-11T19:20:49.691Z,30.13
2019-01-11T19:23:20.537Z,29.00
2019-01-11T19:25:47.362Z,28.83
2019-01-11T19:28:16.218Z,29.10
2019-01-11T19:30:45.856Z,29.90
2019-01-11T19:33:14.701Z,33.25
2019-01-11T19:35:43.555Z,31.50
2019-01-11T19:38:12.407Z,29.23
2019-01-11T19:40:41.289Z,28.80
2019-01-11T19:43:10.122Z,31.37
2019-01-11T19:45:38.952Z,29.92
2019-01-11T19:48:07.783Z,29.03
2019-01-11T19:50:37.394Z,28.80
2019-01-11T19:53:06.232Z,27.40
2019-01-11T19:55:35.061Z,27.77
2019-01-11T19:58:03.933Z,27.97
2019-01-11T20:00:32.760Z,28.97
2019-01-11T20:03:01.593Z,28.10
2019-01-11T20:05:30.420Z,27.43
2019-01-11T20:07:59.272Z,28.10
2019-01-11T20:10:28.125Z,26.03
2019-01-11T20:12:56.962Z,25.87
2019-01-11T20:15:25.802Z,27.13
2019-01-11T20:17:54.640Z,28.20
2019-01-11T20:20:23.486Z,27.67
2019-01-11T20:22:52.324Z,27.63
2019-01-11T20:25:21.187Z,28.37
2019-01-11T20:27:50.028Z,31.12
2019-01-11T20:30:19.637Z,29.67
2019-01-11T20:32:48.486Z,27.37
2019-01-11T20:35:17.356Z,28.87
2019-01-11T20:37:46.189Z,32.65
2019-01-11T20:40:15.038Z,27.70
2019-01-11T20:42:43.884Z,27.90
2019-01-11T20:45:12.807Z,29.17
2019-01-11T20:47:42.327Z,29.80
2019-01-11T20:50:11.177Z,33.00
2019-01-11T20:52:40.039Z,29.73
2019-01-11T20:55:09.615Z,30.50
2019-01-11T20:57:38.453Z,32.77
2019-01-11T21:00:10.015Z,28.73
2019-01-11T21:02:38.901Z,28.60
2019-01-11T21:05:07.716Z,27.97
2019-01-11T21:07:36.547Z,29.43
2019-01-11T21:10:06.165Z,28.13
2019-01-11T21:12:35.751Z,30.30
2019-01-11T21:15:04.808Z,30.03
2019-01-11T21:17:33.461Z,27.53
2019-01-11T21:20:02.293Z,26.70
2019-01-11T21:22:31.129Z,28.37
2019-01-11T21:25:00.715Z,26.80
2019-01-11T21:27:29.575Z,27.67
2019-01-11T21:29:58.401Z,27.50
2019-01-11T21:32:27.247Z,29.07
2019-01-11T21:34:56.105Z,32.17
2019-01-11T21:37:24.998Z,28.90
2019-01-11T21:39:53.830Z,28.87
2019-01-11T21:42:22.668Z,29.00
2019-01-11T21:44:51.511Z,29.03
2019-01-11T21:47:20.368Z,29.63
2019-01-11T21:49:49.201Z,29.63
2019-01-11T21:52:18.061Z,27.57
2019-01-11T21:54:46.886Z,31.02
2019-01-11T21:57:15.746Z,28.80
2019-01-11T21:59:44.587Z,27.00
2019-01-11T22:02:13.439Z,27.93
2019-01-11T22:04:42.278Z,26.87
2019-01-11T22:07:11.133Z,27.90
2019-01-11T22:09:40.015Z,28.13
2019-01-11T22:12:08.868Z,31.70
2019-01-11T22:14:37.718Z,30.27
2019-01-11T22:17:07.312Z,30.13
2019-01-11T22:19:36.892Z,28.33
2019-01-11T22:22:05.727Z,28.93
2019-01-11T22:24:34.604Z,28.97
2019-01-11T22:27:03.452Z,33.17
2019-01-11T22:29:32.280Z,29.53
2019-01-11T22:32:01.134Z,28.43
2019-01-11T22:34:30.054Z,28.87
2019-01-11T22:36:58.907Z,28.83
2019-01-11T22:39:27.751Z,29.07
2019-01-11T22:41:56.585Z,28.50
2019-01-11T22:44:25.414Z,28.13
2019-01-11T22:46:55.000Z,29.80
2019-01-11T22:49:23.843Z,33.93
2019-01-11T22:51:52.685Z,30.20
2019-01-11T22:54:22.153Z,30.53
2019-01-11T22:56:51.029Z,35.22
2019-01-11T22:59:19.871Z,31.40
2019-01-11T23:01:48.803Z,32.03
2019-01-11T23:04:17.574Z,31.03
2019-01-11T23:06:48.207Z,30.30
2019-01-11T23:09:17.068Z,32.47
2019-01-11T23:11:48.624Z,31.03
2019-01-11T23:14:18.231Z,34.43
2019-01-11T23:16:47.064Z,34.40
2019-01-11T23:19:15.931Z,31.33
2019-01-11T23:21:44.731Z,32.27
2019-01-11T23:24:17.376Z,32.23
2019-01-11T23:26:42.437Z,31.27
2019-01-11T23:29:11.271Z,32.07
2019-01-11T23:31:40.853Z,33.83
2019-01-11T23:34:09.684Z,31.90
2019-01-11T23:36:38.545Z,30.77
2019-01-11T23:39:07.451Z,30.33
2019-01-11T23:41:37.045Z,34.88
2019-01-11T23:44:05.901Z,30.10
2019-01-11T23:46:35.751Z,29.27
2019-01-11T23:49:05.547Z,29.73
2019-01-11T23:51:34.403Z,30.80
2019-01-11T23:54:03.249Z,24.30
2019-01-11T23:56:32.092Z,30.63
2019-01-11T23:59:00.933Z,30.80
